Time;durP1;ratioP1;P1;durP2;ratioP2;P2;SDS_P1;SDS_P2;PMS_P1;PMS_P2;Temp;Humidity;BMP_temperature;BMP_pressure;BME280_temperature;BME280_humidity;BME280_pressure;Samples;Min_cycle;Max_cycle;Signal;HPM_P1;HPM_P2
2021/05/15 00:00:08;;;;;;;7.25;2.45;;;;;;;16.63;59.68;101048.28;5071329;28;20492;-65
2021/05/15 00:02:36;;;;;;;5.82;1.65;;;;;;;16.77;59.42;101060.66;5072636;28;20060;-66
2021/05/15 00:05:05;;;;;;;6.22;2.40;;;;;;;16.79;59.18;101057.09;5068673;28;20045;-65
2021/05/15 00:07:33;;;;;;;7.20;1.70;;;;;;;16.77;59.19;101064.19;5071757;28;20036;-65
2021/05/15 00:10:00;;;;;;;9.07;2.25;;;;;;;16.77;59.16;101058.88;5068784;28;20036;-65
2021/05/15 00:12:27;;;;;;;10.57;2.45;;;;;;;16.81;58.78;101057.06;5070095;28;20128;-65
2021/05/15 00:14:56;;;;;;;8.80;2.20;;;;;;;16.85;58.52;101050.84;5072493;28;20041;-65
2021/05/15 00:17:24;;;;;;;8.30;2.25;;;;;;;16.85;58.46;101051.72;5072226;28;20119;-65
2021/05/15 00:19:51;;;;;;;7.13;2.25;;;;;;;16.81;58.61;101047.28;5070596;28;20044;-65
2021/05/15 00:22:18;;;;;;;7.07;2.10;;;;;;;16.77;58.82;101042.88;5072284;28;20113;-65
2021/05/15 00:24:45;;;;;;;9.27;2.03;;;;;;;16.67;59.13;101042.03;5070260;28;20515;-65
2021/05/15 00:27:12;;;;;;;7.97;1.85;;;;;;;16.49;59.45;101042.06;5070959;28;20041;-64
2021/05/15 00:29:40;;;;;;;6.38;2.58;;;;;;;16.38;59.83;101043.91;5069958;28;20048;-64
2021/05/15 00:32:08;;;;;;;6.95;2.25;;;;;;;16.42;59.95;101037.66;5070396;28;20040;-65
2021/05/15 00:34:35;;;;;;;6.55;1.75;;;;;;;16.49;59.50;101031.41;5068588;28;20448;-65
2021/05/15 00:37:02;;;;;;;7.60;1.88;;;;;;;16.54;59.44;101029.59;5070646;28;20123;-65
2021/05/15 00:39:29;;;;;;;5.30;2.00;;;;;;;16.56;59.66;101027.81;5070349;28;20056;-65
2021/05/15 00:41:57;;;;;;;6.00;1.67;;;;;;;16.59;59.62;101025.16;5070526;28;20075;-65
2021/05/15 00:44:42;;;;;;;8.38;1.88;;;;;;;16.59;59.64;101018.94;5069862;28;20040;-65
2021/05/15 00:47:13;;;;;;;8.02;2.10;;;;;;;16.50;60.01;101025.19;5060735;28;20495;-65
2021/05/15 00:49:40;;;;;;;6.07;2.22;;;;;;;16.36;60.43;101019.03;5071857;28;20056;-65
2021/05/15 00:52:07;;;;;;;6.57;2.05;;;;;;;16.27;60.84;101019.09;5070623;28;20128;-65
2021/05/15 00:54:36;;;;;;;6.90;2.33;;;;;;;16.24;60.75;101011.97;5070159;28;20036;-65
2021/05/15 00:57:05;;;;;;;10.02;2.10;;;;;;;16.31;60.56;101016.41;5068615;28;20040;-65
2021/05/15 00:59:33;;;;;;;7.05;2.20;;;;;;;16.34;60.56;101015.50;5066903;28;20053;-65
2021/05/15 01:02:00;;;;;;;9.30;2.80;;;;;;;16.20;60.83;101020.88;5067225;28;20055;-65
2021/05/15 01:04:28;;;;;;;5.93;2.15;;;;;;;16.06;61.25;101014.72;5070164;28;20123;-65
2021/05/15 01:06:55;;;;;;;6.80;2.13;;;;;;;16.05;61.45;101025.34;5069437;28;20036;-65
2021/05/15 01:09:22;;;;;;;12.10;2.65;;;;;;;16.03;61.51;101013.81;5069878;28;20127;-65
2021/05/15 01:11:50;;;;;;;7.20;2.15;;;;;;;16.00;61.69;101008.50;5068288;28;20071;-65
2021/05/15 01:14:17;;;;;;;6.57;2.28;;;;;;;16.03;61.60;101016.47;5066224;28;20136;-65
2021/05/15 01:16:44;;;;;;;6.28;2.20;;;;;;;16.06;61.74;101006.72;5071562;28;20042;-65
2021/05/15 01:19:14;;;;;;;6.82;2.05;;;;;;;16.12;61.67;101001.38;5071690;28;20037;-65
2021/05/15 01:21:43;;;;;;;6.50;1.77;;;;;;;16.06;61.68;101005.81;5068290;28;20036;-65
2021/05/15 01:24:10;;;;;;;8.05;2.20;;;;;;;16.09;61.60;100998.69;5068060;28;20124;-65
2021/05/15 01:26:38;;;;;;;5.80;1.63;;;;;;;16.07;61.77;101002.28;5068686;28;20105;-66
2021/05/15 01:29:06;;;;;;;8.32;1.70;;;;;;;16.00;61.70;101001.41;5070844;28;20543;-65
2021/05/15 01:31:35;;;;;;;10.05;2.38;;;;;;;15.93;61.67;101004.97;5068277;28;20043;-66
2021/05/15 01:34:03;;;;;;;9.73;2.45;;;;;;;15.73;62.08;101014.78;5067082;28;20198;-65
2021/05/15 01:36:32;;;;;;;6.88;2.03;;;;;;;15.57;62.42;101007.69;5069549;28;20040;-65
2021/05/15 01:39:00;;;;;;;7.28;1.85;;;;;;;15.59;62.41;101004.16;5069638;28;20036;-65
2021/05/15 01:41:28;;;;;;;5.25;1.75;;;;;;;15.69;62.10;100997.00;5068474;28;20045;-65
2021/05/15 01:43:58;;;;;;;7.85;2.05;;;;;;;15.78;61.67;100991.69;5068210;28;20128;-65
2021/05/15 01:46:25;;;;;;;7.22;1.80;;;;;;;15.80;61.42;100993.47;5069369;28;20048;-65
2021/05/15 01:48:52;;;;;;;6.85;2.10;;;;;;;15.78;61.70;101003.22;5070736;28;20052;-65
2021/05/15 01:51:20;;;;;;;5.50;1.60;;;;;;;15.75;62.29;100992.56;5066620;28;20037;-65
2021/05/15 01:53:49;;;;;;;8.20;1.75;;;;;;;15.67;62.91;101002.38;5066597;28;20044;-65
2021/05/15 01:56:19;;;;;;;5.07;2.03;;;;;;;15.70;62.61;100994.34;5070514;28;20089;-64
2021/05/15 01:58:46;;;;;;;6.55;1.83;;;;;;;15.66;62.68;100992.59;5069717;28;20072;-65
2021/05/15 02:01:14;;;;;;;7.95;1.92;;;;;;;15.51;62.86;100995.25;5068885;28;20159;-64
2021/05/15 02:03:42;;;;;;;6.25;1.80;;;;;;;15.46;63.26;100997.03;5066867;28;20040;-65
2021/05/15 02:06:09;;;;;;;6.22;2.13;;;;;;;15.39;63.43;100997.91;5068951;28;20535;-65
2021/05/15 02:08:36;;;;;;;10.07;2.45;;;;;;;15.52;63.19;100983.72;5069358;28;20063;-64
2021/05/15 02:11:05;;;;;;;6.40;2.20;;;;;;;15.67;63.06;100983.72;5067016;28;20047;-64
2021/05/15 02:13:33;;;;;;;7.80;2.33;;;;;;;15.71;63.06;100982.81;5067706;28;20211;-65
2021/05/15 02:16:01;;;;;;;10.88;2.05;;;;;;;15.64;62.82;100993.47;5069299;28;20064;-65
2021/05/15 02:18:29;;;;;;;8.07;2.42;;;;;;;15.59;63.27;100988.19;5069399;28;20509;-65
2021/05/15 02:20:57;;;;;;;6.45;1.83;;;;;;;15.52;63.71;100986.38;5068105;28;20131;-64
2021/05/15 02:23:25;;;;;;;7.05;1.75;;;;;;;15.51;63.61;100976.63;5069063;28;20100;-64
2021/05/15 02:25:54;;;;;;;6.57;2.00;;;;;;;15.51;63.39;100969.53;5069672;28;20462;-65
2021/05/15 02:28:21;;;;;;;7.72;1.90;;;;;;;15.53;63.26;100975.78;5070805;28;20044;-65
2021/05/15 02:30:51;;;;;;;6.80;1.85;;;;;;;15.50;63.24;100981.03;5068141;28;20059;-65
2021/05/15 02:33:19;;;;;;;8.00;2.05;;;;;;;15.43;63.72;100973.06;5069166;28;20557;-65
2021/05/15 02:35:46;;;;;;;4.53;1.70;;;;;;;15.43;63.53;100978.38;5065596;28;20111;-64
2021/05/15 02:38:14;;;;;;;10.23;2.40;;;;;;;15.44;63.53;100973.06;5069453;28;20051;-65
2021/05/15 02:40:43;;;;;;;7.78;2.45;;;;;;;15.37;63.54;100983.72;5069983;28;20041;-65
2021/05/15 02:43:10;;;;;;;5.22;2.03;;;;;;;15.38;63.49;100975.75;5070372;28;20128;-64
2021/05/15 02:45:38;;;;;;;12.93;2.38;;;;;;;15.44;63.35;100981.06;5066128;28;20079;-64
2021/05/15 02:48:06;;;;;;;6.50;2.15;;;;;;;15.40;63.22;100981.06;5067038;28;20036;-65
2021/05/15 02:50:34;;;;;;;4.80;1.65;;;;;;;15.36;63.79;100988.16;5067989;28;20086;-65
2021/05/15 02:53:01;;;;;;;8.25;1.77;;;;;;;15.40;63.56;100987.28;5071407;28;20033;-65
2021/05/15 02:55:29;;;;;;;5.15;1.73;;;;;;;15.44;63.54;100993.47;5069049;28;20500;-64
2021/05/15 02:57:56;;;;;;;8.38;2.33;;;;;;;15.40;63.65;100981.06;5073939;28;20131;-64
2021/05/15 03:00:25;;;;;;;6.07;1.95;;;;;;;15.41;63.53;100989.06;5072428;28;20215;-64
2021/05/15 03:02:53;;;;;;;8.60;1.88;;;;;;;15.34;63.46;100986.41;5073784;28;20120;-65
2021/05/15 03:05:23;;;;;;;7.75;2.00;;;;;;;15.26;63.68;100998.78;5070317;28;20036;-64
2021/05/15 03:07:50;;;;;;;9.38;2.30;;;;;;;15.10;64.08;101001.44;5069700;28;20106;-65
2021/05/15 03:10:19;;;;;;;5.38;1.95;;;;;;;15.02;64.42;101002.34;5073661;28;20120;-65
2021/05/15 03:12:46;;;;;;;6.82;1.67;;;;;;;15.10;64.19;101003.22;5072245;28;20033;-65
2021/05/15 03:15:15;;;;;;;8.95;2.10;;;;;;;15.18;63.89;101006.78;5070620;28;20120;-65
2021/05/15 03:17:44;;;;;;;9.05;1.98;;;;;;;15.26;63.78;101013.00;5073816;28;20032;-65
2021/05/15 03:20:15;;;;;;;5.47;1.83;;;;;;;15.34;63.36;101010.34;5071795;28;20494;-64
2021/05/15 03:22:43;;;;;;;5.45;1.98;;;;;;;15.38;63.13;101004.13;5073790;28;20119;-65
2021/05/15 03:25:11;;;;;;;5.97;1.80;;;;;;;15.42;63.16;100987.28;5069809;28;20039;-65
2021/05/15 03:27:39;;;;;;;5.72;1.75;;;;;;;15.45;63.30;100998.78;5069589;28;20045;-64
2021/05/15 03:30:08;;;;;;;6.68;1.73;;;;;;;15.56;63.34;100988.16;5071018;28;20051;-64
2021/05/15 03:32:35;;;;;;;9.43;2.15;;;;;;;15.68;63.19;100988.19;5070995;28;20052;-65
2021/05/15 03:35:02;;;;;;;8.75;1.70;;;;;;;15.74;63.45;100996.16;5071426;28;20563;-65
2021/05/15 03:37:30;;;;;;;5.63;1.73;;;;;;;15.88;63.12;100991.66;5072231;28;20056;-65
2021/05/15 03:39:58;;;;;;;6.32;1.50;;;;;;;16.01;63.02;100989.88;5070243;28;20119;-64
2021/05/15 03:42:25;;;;;;;7.25;1.38;;;;;;;16.16;63.00;100986.25;5070728;28;20520;-65
2021/05/15 03:44:53;;;;;;;8.30;1.95;;;;;;;16.28;62.88;100984.41;5071256;28;20106;-64
2021/05/15 03:47:20;;;;;;;4.40;1.17;;;;;;;16.42;62.65;100983.47;5071540;28;20052;-65
2021/05/15 03:49:47;;;;;;;7.78;1.40;;;;;;;16.55;62.46;100986.06;5070132;28;20058;-65
2021/05/15 03:52:14;;;;;;;13.10;5.80;;;;;;;16.65;62.51;100977.19;5070263;28;20123;-65
2021/05/15 03:54:41;;;;;;;10.52;4.60;;;;;;;16.67;62.74;100972.69;5071513;28;20060;-65
2021/05/15 03:57:10;;;;;;;6.65;2.67;;;;;;;16.85;62.63;100969.06;5071736;28;20040;-66
2021/05/15 03:59:38;;;;;;;6.55;1.50;;;;;;;17.04;61.81;100969.81;5068697;28;20040;-65
2021/05/15 04:02:05;;;;;;;4.35;1.35;;;;;;;17.30;61.00;100967.81;5071983;28;20041;-65
2021/05/15 04:04:34;;;;;;;7.43;1.80;;;;;;;17.52;60.02;100968.50;5071349;28;20526;-64
2021/05/15 04:07:00;;;;;;;7.47;1.67;;;;;;;17.72;59.76;100965.69;5067568;28;20048;-65
2021/05/15 04:09:28;;;;;;;6.45;1.15;;;;;;;17.90;58.98;100963.69;5072170;28;20063;-65
2021/05/15 04:11:55;;;;;;;8.50;1.60;;;;;;;18.11;58.75;100970.59;5073356;28;20071;-65
2021/05/15 04:14:29;;;;;;;8.90;2.15;;;;;;;18.36;58.61;100975.63;5065190;28;20045;-65
2021/05/15 04:17:15;;;;;;;;;;;;;;;18.53;58.26;100968.25;5072900;28;20036;-65
2021/05/15 04:19:42;;;;;;;4.95;1.30;;;;;;;18.69;58.44;100962.72;5071554;28;19920;-65
2021/05/15 04:22:09;;;;;;;3.90;0.93;;;;;;;18.88;58.10;100960.63;5070101;28;20480;-65
2021/05/15 04:24:36;;;;;;;3.85;1.38;;;;;;;19.09;57.53;100965.66;5070189;28;20067;-65
2021/05/15 04:27:05;;;;;;;5.80;1.52;;;;;;;19.36;57.11;100975.00;5071932;28;20033;-65
2021/05/15 04:29:34;;;;;;;6.50;1.63;;;;;;;19.62;56.30;100966.56;5070108;28;20262;-65
2021/05/15 04:32:01;;;;;;;8.32;1.50;;;;;;;19.86;56.06;100958.06;5069480;28;20036;-65
2021/05/15 04:34:29;;;;;;;4.95;1.48;;;;;;;20.13;55.76;100958.44;5070448;28;20036;-65
2021/05/15 04:36:57;;;;;;;7.03;1.63;;;;;;;20.39;54.83;100945.38;5070421;28;20045;-65
2021/05/15 04:39:25;;;;;;;3.90;1.30;;;;;;;20.64;54.02;100940.34;5068743;28;20059;-65
2021/05/15 04:41:53;;;;;;;5.05;1.35;;;;;;;20.88;53.00;100929.03;5062805;28;20036;-65
2021/05/15 04:44:20;;;;;;;5.40;1.00;;;;;;;21.20;52.78;100940.84;5069680;28;20456;-65
2021/05/15 04:46:48;;;;;;;4.93;1.08;;;;;;;21.47;52.35;100941.00;5068753;28;20380;-66
2021/05/15 04:49:15;;;;;;;8.98;1.20;;;;;;;21.72;51.14;100945.72;5065448;28;20060;-65
2021/05/15 04:51:42;;;;;;;6.15;1.50;;;;;;;21.96;51.00;100941.50;5066601;28;20144;-65
2021/05/15 04:54:09;;;;;;;3.80;1.10;;;;;;;22.21;50.13;100946.13;5067343;28;20045;-66
2021/05/15 04:56:37;;;;;;;5.38;1.70;;;;;;;22.51;49.82;100932.69;5067439;28;20048;-66
2021/05/15 04:59:04;;;;;;;2.92;0.95;;;;;;;22.79;48.34;100944.38;5070134;28;20051;-65
2021/05/15 05:01:31;;;;;;;7.13;1.23;;;;;;;23.01;46.70;100945.47;5068768;28;20450;-65
2021/05/15 05:04:01;;;;;;;3.38;1.10;;;;;;;23.21;45.52;100943.91;5070772;28;20043;-65
2021/05/15 05:06:28;;;;;;;8.88;1.98;;;;;;;23.35;44.65;100937.13;5070322;28;20028;-65
2021/05/15 05:08:55;;;;;;;3.92;1.27;;;;;;;23.48;44.04;100931.34;5070615;28;20111;-66
2021/05/15 05:11:22;;;;;;;6.82;1.13;;;;;;;23.72;44.10;100941.25;5068826;28;20446;-65
2021/05/15 05:13:49;;;;;;;3.85;1.08;;;;;;;24.09;43.78;100935.41;5069521;28;20121;-65
2021/05/15 05:16:16;;;;;;;5.13;1.33;;;;;;;24.36;43.28;100920.88;5069997;28;20045;-65
2021/05/15 05:18:43;;;;;;;5.70;1.15;;;;;;;24.60;42.57;100917.25;5070256;28;20131;-65
2021/05/15 05:21:12;;;;;;;5.00;1.05;;;;;;;25.01;41.68;100925.50;5069701;28;20449;-65
2021/05/15 05:23:40;;;;;;;5.43;0.80;;;;;;;25.34;41.27;100928.59;5064615;28;20123;-65
2021/05/15 05:26:07;;;;;;;4.05;0.88;;;;;;;25.55;41.30;100935.78;5067999;28;20033;-65
2021/05/15 05:28:35;;;;;;;4.13;1.30;;;;;;;25.73;40.79;100926.91;5069963;28;20504;-65
2021/05/15 05:31:06;;;;;;;3.20;0.88;;;;;;;25.97;40.45;100929.47;5070697;28;20040;-66
2021/05/15 05:33:35;;;;;;;6.68;1.17;;;;;;;26.14;39.85;100930.44;5070663;28;20033;-65
2021/05/15 05:36:02;;;;;;;5.68;0.80;;;;;;;26.19;39.40;100931.09;5070380;28;20045;-66
2021/05/15 05:38:30;;;;;;;4.15;0.80;;;;;;;26.31;39.18;100921.59;5071045;28;20055;-65
2021/05/15 05:40:58;;;;;;;5.28;0.90;;;;;;;26.52;38.72;100916.97;5071010;28;20119;-65
2021/05/15 05:43:25;;;;;;;3.13;0.70;;;;;;;26.76;37.82;100920.34;5070917;28;20037;-65
2021/05/15 05:45:52;;;;;;;4.43;0.75;;;;;;;27.07;37.53;100920.59;5067646;28;20587;-65
2021/05/15 05:48:21;;;;;;;4.90;0.60;;;;;;;27.25;36.92;100927.81;5068658;28;20063;-65
2021/05/15 05:50:52;;;;;;;7.38;1.10;;;;;;;27.19;36.07;100917.28;5070488;28;20040;-65
2021/05/15 05:53:21;;;;;;;5.38;0.90;;;;;;;27.38;36.13;100914.50;5069923;28;20492;-66
2021/05/15 05:55:49;;;;;;;5.03;1.02;;;;;;;27.61;35.53;100906.09;5069866;28;20443;-65
2021/05/15 05:58:17;;;;;;;4.47;0.85;;;;;;;27.69;35.31;100908.41;5069974;28;20128;-65
2021/05/15 06:00:44;;;;;;;7.97;1.27;;;;;;;27.51;35.33;100902.03;5069931;28;20120;-66
2021/05/15 06:03:11;;;;;;;5.65;0.85;;;;;;;27.44;35.20;100900.59;5069391;28;20048;-65
2021/05/15 06:05:39;;;;;;;4.28;1.00;;;;;;;27.21;35.02;100900.94;5070033;28;20178;-66
2021/05/15 06:08:07;;;;;;;4.88;0.73;;;;;;;27.28;34.90;100900.53;5070035;28;20094;-66
2021/05/15 06:10:37;;;;;;;5.28;0.98;;;;;;;27.40;35.34;100909.88;5070322;28;20040;-66
2021/05/15 06:13:10;;;;;;;5.25;1.20;;;;;;;27.43;35.39;100904.31;5068790;28;20444;-66
2021/05/15 06:15:39;;;;;;;3.95;0.77;;;;;;;27.36;36.01;100903.75;5059537;28;20117;-66
2021/05/15 06:18:08;;;;;;;3.75;0.90;;;;;;;27.59;36.38;100897.13;5069770;28;20067;-66
2021/05/15 06:20:36;;;;;;;5.22;1.00;;;;;;;27.55;36.18;100889.25;5069550;28;20094;-66
2021/05/15 06:23:06;;;;;;;4.38;1.42;;;;;;;27.50;36.56;100894.00;5069511;28;20033;-66
2021/05/15 06:25:35;;;;;;;6.18;0.82;;;;;;;27.52;36.97;100902.97;5069446;28;20037;-66
2021/05/15 06:28:06;;;;;;;9.25;1.67;;;;;;;27.47;36.97;100903.19;5071557;28;20039;-66
2021/05/15 06:30:35;;;;;;;5.13;0.75;;;;;;;27.42;38.28;100902.53;5072390;28;20512;-66
2021/05/15 06:33:04;;;;;;;4.18;1.00;;;;;;;27.33;38.50;100912.03;5073153;28;20519;-66
2021/05/15 06:35:35;;;;;;;4.22;0.75;;;;;;;27.22;38.67;100914.41;5073555;28;20086;-66
2021/05/15 06:38:05;;;;;;;4.47;1.00;;;;;;;27.53;38.03;100912.84;5072335;28;20044;-65
2021/05/15 06:40:34;;;;;;;7.28;1.40;;;;;;;27.83;38.04;100932.09;5073176;28;20033;-65
2021/05/15 06:43:05;;;;;;;4.60;0.82;;;;;;;27.85;37.09;100932.88;5071987;28;20056;-65
2021/05/15 06:45:35;;;;;;;4.35;0.88;;;;;;;27.67;37.24;100943.75;5073491;28;20048;-65
2021/05/15 06:48:02;;;;;;;7.78;1.13;;;;;;;27.66;37.17;100947.41;5073469;28;20068;-65
2021/05/15 06:50:29;;;;;;;3.38;1.08;;;;;;;27.52;38.67;100941.81;5071589;28;20052;-65
2021/05/15 06:52:56;;;;;;;4.32;1.08;;;;;;;27.72;39.37;100952.50;5071345;28;20059;-66
2021/05/15 06:55:25;;;;;;;4.55;1.23;;;;;;;27.96;38.48;100949.47;5072713;28;20071;-66
2021/05/15 06:57:53;;;;;;;7.38;1.00;;;;;;;28.22;38.68;100950.81;5070192;28;20181;-66
2021/05/15 07:00:21;;;;;;;6.30;1.00;;;;;;;28.46;38.08;100952.16;5052317;28;20044;-66
2021/05/15 07:02:50;;;;;;;3.60;1.10;;;;;;;28.58;37.97;100947.88;5059620;28;20040;-66
2021/05/15 07:05:17;;;;;;;5.70;0.88;;;;;;;28.55;37.98;100954.38;5053783;28;20041;-66
2021/05/15 07:07:45;;;;;;;5.43;1.13;;;;;;;28.63;38.09;100959.38;5056569;28;20055;-66
2021/05/15 07:10:14;;;;;;;5.00;0.95;;;;;;;28.61;38.00;100966.75;5065316;28;20086;-66
2021/05/15 07:12:42;;;;;;;4.70;1.42;;;;;;;28.71;38.24;100959.81;5072652;28;20056;-66
2021/05/15 07:15:09;;;;;;;3.67;0.95;;;;;;;28.99;38.25;100970.91;5072606;28;20494;-66
2021/05/15 07:17:36;;;;;;;4.00;1.05;;;;;;;29.21;37.75;100971.41;5073308;28;20504;-66
2021/05/15 07:20:06;;;;;;;6.32;1.00;;;;;;;29.41;37.06;100970.25;5071705;28;20045;-65
2021/05/15 07:22:34;;;;;;;5.85;1.23;;;;;;;29.45;36.71;100970.97;5071811;28;20041;-66
2021/05/15 07:25:01;;;;;;;4.93;0.88;;;;;;;29.54;36.59;100970.41;5072300;28;20059;-66
2021/05/15 07:27:29;;;;;;;4.93;1.23;;;;;;;29.61;36.10;100979.97;5073419;28;20040;-66
2021/05/15 07:29:57;;;;;;;7.18;1.15;;;;;;;29.46;36.32;100976.34;5073026;28;20096;-66
2021/05/15 07:32:25;;;;;;;5.30;1.05;;;;;;;29.51;36.55;100979.66;5073008;28;20090;-66
2021/05/15 07:34:52;;;;;;;3.50;0.95;;;;;;;29.64;36.03;100979.78;5072307;28;20036;-66
2021/05/15 07:37:20;;;;;;;7.20;1.20;;;;;;;29.69;35.22;100983.97;5062796;28;20051;-66
2021/05/15 07:39:47;;;;;;;4.30;0.90;;;;;;;29.81;35.34;100990.53;5070606;28;20037;-67
2021/05/15 07:42:14;;;;;;;4.68;1.33;;;;;;;29.90;35.17;100989.97;5070437;28;20100;-67
2021/05/15 07:44:41;;;;;;;4.22;0.82;;;;;;;29.81;35.21;100990.53;5072200;28;20039;-66
2021/05/15 07:47:09;;;;;;;3.35;0.70;;;;;;;29.91;35.02;100994.47;5072053;28;20079;-66
2021/05/15 07:49:36;;;;;;;3.25;0.80;;;;;;;29.76;34.80;100994.50;5072479;28;20128;-66
2021/05/15 07:52:03;;;;;;;6.15;0.88;;;;;;;29.81;34.54;101006.84;5072069;28;20121;-66
2021/05/15 07:54:31;;;;;;;2.35;0.73;;;;;;;30.04;34.09;101006.38;5071803;28;20064;-66
2021/05/15 07:56:58;;;;;;;3.05;0.88;;;;;;;30.15;34.24;101019.34;5072870;28;20466;-67
2021/05/15 07:59:26;;;;;;;5.88;1.10;;;;;;;30.10;34.43;101019.63;5072717;28;20029;-66
2021/05/15 08:01:53;;;;;;;4.82;1.00;;;;;;;30.23;34.21;101025.19;5072199;28;20049;-66
2021/05/15 08:04:20;;;;;;;4.32;0.90;;;;;;;30.25;33.60;101025.97;5072082;28;20072;-66
2021/05/15 08:06:49;;;;;;;6.93;1.10;;;;;;;30.41;33.22;101021.31;5072936;28;20072;-67
2021/05/15 08:09:16;;;;;;;5.95;0.90;;;;;;;30.60;33.05;101029.22;5072673;28;20582;-66
2021/05/15 08:11:44;;;;;;;4.30;1.02;;;;;;;30.73;33.15;101032.06;5073102;28;20385;-66
2021/05/15 08:14:11;;;;;;;3.55;1.08;;;;;;;30.57;32.97;101024.00;5071935;28;20044;-66
2021/05/15 08:16:39;;;;;;;6.82;1.20;;;;;;;30.22;33.43;101026.16;5068263;28;20548;-66
2021/05/15 08:19:06;;;;;;;3.25;0.95;;;;;;;29.96;33.51;101025.03;5072541;28;20045;-66
2021/05/15 08:21:34;;;;;;;6.30;1.20;;;;;;;29.62;34.01;101025.28;5072168;28;20544;-66
2021/05/15 08:24:01;;;;;;;5.43;1.05;;;;;;;29.26;34.40;101025.56;5072030;28;20044;-66
2021/05/15 08:26:28;;;;;;;6.03;0.80;;;;;;;29.16;35.04;101016.16;5071090;28;20059;-66
2021/05/15 08:28:57;;;;;;;2.90;1.10;;;;;;;29.45;34.60;101015.41;5070063;28;20033;-66
2021/05/15 08:31:24;;;;;;;4.60;1.48;;;;;;;29.47;35.23;101016.16;5072270;28;20041;-66
2021/05/15 08:33:51;;;;;;;4.53;1.00;;;;;;;29.58;34.77;101008.25;5072357;28;20052;-67
2021/05/15 08:36:18;;;;;;;7.50;0.90;;;;;;;29.75;34.50;101017.25;5071131;28;20401;-66
2021/05/15 08:38:45;;;;;;;3.17;1.00;;;;;;;29.67;34.82;101020.41;5071663;28;20488;-67
2021/05/15 08:41:14;;;;;;;7.85;1.58;;;;;;;29.49;35.49;101018.78;5072714;28;20174;-67
2021/05/15 08:43:43;;;;;;;8.25;1.00;;;;;;;29.84;34.87;101013.97;5071737;28;20215;-67
2021/05/15 08:46:13;;;;;;;4.38;0.98;;;;;;;29.46;35.20;101016.28;5072190;28;20044;-66
2021/05/15 08:48:42;;;;;;;5.78;1.00;;;;;;;29.82;35.49;101014.06;5071976;28;20098;-66
2021/05/15 08:51:10;;;;;;;10.32;1.50;;;;;;;30.16;34.72;101015.66;5069557;28;20119;-66
2021/05/15 08:53:39;;;;;;;5.63;1.00;;;;;;;30.03;34.91;101011.91;5069973;28;20115;-66
2021/05/15 08:56:08;;;;;;;4.20;0.90;;;;;;;29.75;34.65;101012.69;5071661;28;20040;-66
2021/05/15 08:58:37;;;;;;;4.38;0.90;;;;;;;29.28;34.76;100996.41;5071948;28;20053;-66
2021/05/15 09:01:05;;;;;;;5.88;1.05;;;;;;;29.16;35.28;101006.16;5071681;28;20110;-66
2021/05/15 09:03:34;;;;;;;6.13;1.17;;;;;;;29.55;34.68;101008.44;5071579;28;20032;-66
2021/05/15 09:06:03;;;;;;;7.57;1.27;;;;;;;30.00;34.49;101009.38;5071361;28;20563;-66
2021/05/15 09:08:30;;;;;;;4.00;1.13;;;;;;;30.27;34.02;101002.22;5071679;28;20040;-66
2021/05/15 09:10:58;;;;;;;5.55;1.25;;;;;;;30.28;33.71;100997.66;5071221;28;20048;-66
2021/05/15 09:13:27;;;;;;;4.78;1.10;;;;;;;30.22;33.90;100993.47;5071533;28;20119;-66
2021/05/15 09:15:57;;;;;;;5.30;1.20;;;;;;;30.43;33.87;100992.13;5071646;28;20033;-66
2021/05/15 09:18:26;;;;;;;2.53;1.05;;;;;;;30.51;33.29;100978.03;5071108;28;20123;-66
2021/05/15 09:20:56;;;;;;;4.57;0.90;;;;;;;30.66;33.00;100985.22;5071736;28;20056;-66
2021/05/15 09:23:24;;;;;;;4.03;1.00;;;;;;;30.74;32.44;100980.16;5071560;28;20078;-66
2021/05/15 09:26:02;;;;;;;6.80;1.30;;;;;;;30.11;32.37;100979.66;5070225;28;20487;-66
2021/05/15 09:28:39;;;;;;;5.80;0.85;;;;;;;29.66;32.84;100972.41;5051400;28;20515;-66
2021/05/15 09:31:20;;;;;;;3.90;1.10;;;;;;;29.79;32.64;100969.84;5050971;28;20041;-66
2021/05/15 09:33:50;;;;;;;7.95;1.50;;;;;;;30.06;32.10;100974.47;5050603;28;20090;-66
2021/05/15 09:36:20;;;;;;;6.18;1.17;;;;;;;30.28;32.09;100974.00;5051153;28;20134;-65
2021/05/15 09:39:00;;;;;;;7.30;1.65;;;;;;;30.39;32.04;100968.75;5050844;28;20075;-67
2021/05/15 09:41:36;;;;;;;4.97;1.20;;;;;;;30.58;31.66;100967.63;5060273;28;20115;-66
2021/05/15 09:44:03;;;;;;;7.70;1.10;;;;;;;30.72;31.65;100964.88;5070959;28;20044;-66
2021/05/15 09:46:33;;;;;;;4.40;1.00;;;;;;;30.78;31.21;100959.03;5070595;28;20119;-66
2021/05/15 09:49:00;;;;;;;5.78;1.10;;;;;;;30.79;30.80;100952.56;5070078;28;20071;-67
2021/05/15 09:51:28;;;;;;;3.83;1.40;;;;;;;30.75;30.88;100953.75;5071270;28;20039;-66
2021/05/15 09:53:55;;;;;;;4.25;1.02;;;;;;;30.74;30.85;100952.00;5070688;28;20045;-66
2021/05/15 09:56:30;;;;;;;4.43;1.00;;;;;;;30.73;30.67;100947.53;5070590;28;20041;-66
2021/05/15 09:58:58;;;;;;;7.43;1.25;;;;;;;30.72;30.52;100946.66;5070414;28;20059;-66
2021/05/15 10:01:25;;;;;;;7.03;1.33;;;;;;;30.56;30.36;100939.59;5069011;28;20111;-66
2021/05/15 10:03:59;;;;;;;4.75;1.10;;;;;;;30.32;30.82;100937.44;5070279;28;20504;-66
2021/05/15 10:06:28;;;;;;;4.80;1.20;;;;;;;30.14;30.90;100938.59;5070225;28;20046;-66
2021/05/15 10:08:55;;;;;;;6.60;1.58;;;;;;;30.15;30.82;100931.28;5071016;28;20056;-66
2021/05/15 10:11:22;;;;;;;3.78;1.00;;;;;;;30.12;30.65;100928.78;5070758;28;20508;-66
2021/05/15 10:13:50;;;;;;;6.75;1.40;;;;;;;29.86;31.26;100930.38;5070614;28;20060;-66
2021/05/15 10:16:18;;;;;;;5.57;0.98;;;;;;;29.81;31.14;100921.59;5070503;28;20502;-66
2021/05/15 10:18:45;;;;;;;4.05;0.90;;;;;;;30.03;31.00;100912.03;5070521;28;20147;-66
2021/05/15 10:21:12;;;;;;;4.25;1.00;;;;;;;30.07;30.67;100923.59;5070767;28;20410;-66
2021/05/15 10:23:42;;;;;;;4.78;1.20;;;;;;;30.10;30.37;100916.13;5070618;28;20499;-66
2021/05/15 10:26:16;;;;;;;3.33;0.93;;;;;;;30.11;30.11;100919.72;5070145;28;20091;-66
2021/05/15 10:28:45;;;;;;;4.97;1.00;;;;;;;29.59;30.61;100911.16;5070444;28;20072;-67
2021/05/15 10:31:15;;;;;;;3.92;0.90;;;;;;;29.48;31.25;100900.91;5070590;28;20044;-66
2021/05/15 10:33:43;;;;;;;4.15;1.17;;;;;;;29.54;31.08;100905.09;5070887;28;20051;-66
2021/05/15 10:36:20;;;;;;;4.10;1.00;;;;;;;29.52;31.09;100899.78;5069129;28;20039;-66
2021/05/15 10:38:50;;;;;;;3.80;1.02;;;;;;;29.37;31.38;100894.38;5070054;28;20075;-67
2021/05/15 10:41:20;;;;;;;5.78;1.38;;;;;;;29.41;30.94;100898.66;5070310;28;20098;-66
2021/05/15 10:43:49;;;;;;;6.68;1.42;;;;;;;29.36;31.27;100879.88;5070374;28;20090;-66
2021/05/15 10:46:22;;;;;;;4.03;1.13;;;;;;;29.51;32.12;100886.25;5070203;28;20404;-67
2021/05/15 10:48:57;;;;;;;5.90;1.23;;;;;;;29.67;32.42;100887.91;5069477;28;20512;-66
2021/05/15 10:51:33;;;;;;;9.57;1.25;;;;;;;29.88;32.23;100893.00;5070514;28;20120;-66
2021/05/15 10:54:02;;;;;;;8.48;1.50;;;;;;;30.10;31.95;100875.25;5069882;28;20032;-66
2021/05/15 10:56:30;;;;;;;6.97;1.23;;;;;;;30.10;31.68;100878.00;5069966;28;20061;-66
2021/05/15 10:59:04;;;;;;;5.97;1.30;;;;;;;30.38;31.18;100868.03;5070170;28;20033;-66
2021/05/15 11:01:47;;;;;;;9.13;2.00;;;;;;;30.51;30.88;100871.75;5069769;28;20128;-66
2021/05/15 11:04:24;;;;;;;3.28;1.02;;;;;;;30.48;30.59;100874.63;5069648;28;20501;-66
2021/05/15 11:07:10;;;;;;;4.65;0.98;;;;;;;30.45;31.11;100863.94;5049766;28;20491;-66
2021/05/15 11:09:51;;;;;;;2.88;1.00;;;;;;;30.66;31.17;100856.22;5049830;28;20084;-66
2021/05/15 11:12:21;;;;;;;4.90;1.75;;;;;;;30.62;30.96;100849.22;5050161;28;20124;-65
2021/05/15 11:14:50;;;;;;;5.80;1.25;;;;;;;30.56;31.21;100849.63;5052558;28;20053;-66
2021/05/15 11:17:25;;;;;;;8.85;1.35;;;;;;;30.68;30.74;100852.41;5071872;28;20032;-66
2021/05/15 11:19:55;;;;;;;5.95;1.25;;;;;;;31.01;30.76;100846.53;5073690;28;20041;-66
2021/05/15 11:22:35;;;;;;;6.20;1.10;;;;;;;31.47;30.44;100840.66;5073560;28;20128;-66
2021/05/15 11:25:06;;;;;;;6.70;1.17;;;;;;;31.99;29.04;100846.94;5073146;28;20353;-66
2021/05/15 11:27:33;;;;;;;4.88;1.00;;;;;;;31.87;28.92;100836.00;5072782;28;20119;-65
2021/05/15 11:30:13;;;;;;;5.75;0.95;;;;;;;31.40;28.80;100848.41;5073589;28;20064;-66